createdAt,value
2023-10-02T00:02:00.227Z,14.40
2023-10-02T00:04:27.923Z,14.40
2023-10-02T00:07:07.744Z,14.40
2023-10-02T00:09:36.458Z,14.40
2023-10-02T00:12:12.535Z,14.30
2023-10-02T00:14:43.857Z,14.30
2023-10-02T00:17:15.727Z,14.30
2023-10-02T00:19:47.283Z,14.30
2023-10-02T00:22:31.529Z,14.40
2023-10-02T00:25:01.314Z,14.30
2023-10-02T00:27:30.211Z,14.30
2023-10-02T00:30:01.269Z,14.30
2023-10-02T00:32:32.449Z,14.30
2023-10-02T00:35:05.646Z,14.30
2023-10-02T00:37:46.978Z,14.20
2023-10-02T00:40:21.941Z,14.30
2023-10-02T00:42:50.517Z,14.30
2023-10-02T00:45:20.282Z,14.40
2023-10-02T00:47:48.466Z,14.30
2023-10-02T00:50:19.845Z,14.30
2023-10-02T00:52:56.806Z,14.30
2023-10-02T00:55:27.536Z,14.30
2023-10-02T00:57:58.629Z,14.30
2023-10-02T01:00:36.978Z,14.30
2023-10-02T01:03:09.939Z,14.20
2023-10-02T01:05:43.661Z,14.30
2023-10-02T01:08:24.670Z,14.30
2023-10-02T01:10:58.750Z,14.30
2023-10-02T01:13:33.222Z,14.20
2023-10-02T01:16:08.490Z,14.20
2023-10-02T01:18:38.312Z,14.30
2023-10-02T01:21:12.617Z,14.20
2023-10-02T01:24:08.315Z,14.20
2023-10-02T01:26:41.694Z,14.00
2023-10-02T01:29:12.349Z,14.10
2023-10-02T01:31:46.513Z,14.00
2023-10-02T01:34:34.644Z,14.00
2023-10-02T01:37:25.147Z,14.00
2023-10-02T01:40:14.701Z,14.00
2023-10-02T01:42:45.164Z,13.90
2023-10-02T01:45:13.405Z,14.00
2023-10-02T01:47:43.187Z,14.00
2023-10-02T01:50:11.826Z,14.00
2023-10-02T01:52:51.228Z,14.00
2023-10-02T01:55:30.623Z,14.00
2023-10-02T01:58:17.948Z,14.00
2023-10-02T02:00:47.487Z,14.00
2023-10-02T02:03:19.218Z,14.10
2023-10-02T02:05:48.056Z,14.10
2023-10-02T02:08:25.556Z,14.10
2023-10-02T02:11:16.207Z,14.10
2023-10-02T02:13:49.172Z,14.10
2023-10-02T02:16:26.719Z,14.00
2023-10-02T02:42:23.459Z,14.10
2023-10-02T02:44:51.472Z,14.10
2023-10-02T02:47:23.147Z,14.20
2023-10-02T02:49:59.555Z,14.20
2023-10-02T02:52:33.648Z,14.30
2023-10-02T02:55:06.670Z,14.40
2023-10-02T06:19:46.627Z,14.90
2023-10-02T06:22:15.714Z,15.10
2023-10-02T06:24:45.027Z,15.10
2023-10-02T06:27:15.403Z,15.20
2023-10-02T06:29:48.616Z,15.20
2023-10-02T06:32:20.670Z,15.30
2023-10-02T06:34:52.229Z,15.40
2023-10-02T06:37:26.813Z,15.40
2023-10-02T06:40:05.872Z,15.50
2023-10-02T06:42:35.711Z,15.60
2023-10-02T06:45:04.207Z,15.70
2023-10-02T06:47:36.156Z,15.80
2023-10-02T06:50:25.244Z,15.90
2023-10-02T06:52:55.588Z,15.90
2023-10-02T06:55:26.207Z,16.00
2023-10-02T06:57:55.098Z,16.00
2023-10-02T07:00:26.628Z,16.20
2023-10-02T07:02:59.110Z,16.20
2023-10-02T07:05:34.125Z,16.30
2023-10-02T07:08:18.990Z,16.40
2023-10-02T07:10:48.970Z,16.50
2023-10-02T07:13:21.593Z,16.50
2023-10-02T07:15:54.449Z,16.60
2023-10-02T07:18:22.670Z,16.60
2023-10-02T07:20:54.521Z,16.70
2023-10-02T07:23:23.876Z,16.80
2023-10-02T07:25:52.647Z,16.80
2023-10-02T07:28:22.518Z,17.00
2023-10-02T07:30:51.688Z,17.00
2023-10-02T07:33:21.511Z,17.10
2023-10-02T07:35:55.863Z,17.20
2023-10-02T07:38:31.336Z,17.30
2023-10-02T07:41:07.607Z,17.40
2023-10-02T07:43:36.600Z,17.60
2023-10-02T07:46:15.592Z,17.70
2023-10-02T07:48:54.987Z,17.70
2023-10-02T07:51:31.943Z,17.80
2023-10-02T07:54:00.702Z,17.90
2023-10-02T07:56:30.310Z,18.00
2023-10-02T07:59:02.720Z,18.10
2023-10-02T08:01:35.010Z,18.10
2023-10-02T08:04:04.290Z,18.30
2023-10-02T08:06:39.292Z,18.40
2023-10-02T08:09:37.923Z,18.50
2023-10-02T08:12:09.534Z,18.60
2023-10-02T08:14:41.567Z,18.80
2023-10-02T08:17:19.809Z,18.80
2023-10-02T08:19:57.778Z,18.90
2023-10-02T08:22:36.741Z,19.00
2023-10-02T08:25:14.505Z,19.10
2023-10-02T08:27:44.745Z,19.20
2023-10-02T08:30:29.752Z,19.20
2023-10-02T08:33:07.394Z,19.20
2023-10-02T08:35:49.169Z,19.20
2023-10-02T08:38:23.982Z,19.20
2023-10-02T08:40:58.545Z,19.20
2023-10-02T08:43:27.442Z,19.30
2023-10-02T08:45:56.478Z,19.40
2023-10-02T08:48:26.257Z,19.50
2023-10-02T08:50:59.375Z,19.50
2023-10-02T08:53:29.076Z,19.60
2023-10-02T08:56:25.112Z,19.70
2023-10-02T08:59:13.818Z,19.80
2023-10-02T09:01:42.102Z,19.90
2023-10-02T09:04:40.493Z,20.10
2023-10-02T09:07:23.996Z,20.20
2023-10-02T09:12:51.924Z,20.20
2023-10-02T09:15:34.273Z,20.50
2023-10-02T09:18:21.117Z,20.60
2023-10-02T09:20:55.518Z,20.70
2023-10-02T09:23:28.677Z,20.80
2023-10-02T09:26:19.464Z,20.80
2023-10-02T09:29:00.357Z,20.80
2023-10-02T09:31:31.753Z,20.90
2023-10-02T09:34:23.837Z,21.00
2023-10-02T09:38:04.605Z,21.10
2023-10-02T09:40:04.276Z,21.20
2023-10-02T09:42:38.256Z,21.20
2023-10-02T09:45:11.178Z,21.10
2023-10-02T09:47:47.572Z,21.20
2023-10-02T09:50:28.142Z,21.20
2023-10-02T09:53:03.167Z,21.30
2023-10-02T09:55:59.528Z,21.40
2023-10-02T09:58:36.564Z,21.50
2023-10-02T10:01:38.848Z,21.80
2023-10-02T10:04:29.932Z,21.80
2023-10-02T10:07:11.187Z,21.80
2023-10-02T10:09:54.602Z,21.70
2023-10-02T10:12:50.511Z,21.70
2023-10-02T10:15:28.792Z,21.80
2023-10-02T10:18:04.326Z,21.90
2023-10-02T10:20:32.593Z,22.00
2023-10-02T10:23:32.422Z,22.20
2023-10-02T10:26:08.881Z,22.30
2023-10-02T10:28:52.219Z,22.40
2023-10-02T10:31:29.518Z,22.50
2023-10-02T10:34:00.936Z,22.60
2023-10-02T10:36:41.039Z,22.60
2023-10-02T10:40:23.027Z,22.80
2023-10-02T10:43:01.229Z,22.90
2023-10-02T10:45:34.532Z,22.90
2023-10-02T10:48:03.139Z,22.90
2023-10-02T10:50:33.975Z,22.90
2023-10-02T10:53:23.828Z,23.00
2023-10-02T10:55:56.218Z,23.00
2023-10-02T10:58:33.041Z,23.10
2023-10-02T11:01:03.591Z,23.10
2023-10-02T11:03:32.766Z,23.20
2023-10-02T11:06:07.380Z,23.40
2023-10-02T11:08:38.988Z,23.40
2023-10-02T11:11:20.108Z,23.40
2023-10-02T11:13:56.235Z,23.50
2023-10-02T11:16:37.532Z,23.50
2023-10-02T11:19:27.005Z,23.70
2023-10-02T11:22:18.097Z,23.80
2023-10-02T11:25:18.848Z,23.90
2023-10-02T11:27:58.182Z,23.90
2023-10-02T11:30:33.274Z,23.90
2023-10-02T11:33:06.240Z,23.80
2023-10-02T11:35:41.030Z,23.90
2023-10-02T11:38:11.992Z,23.90
2023-10-02T11:40:44.412Z,23.90
2023-10-02T11:43:16.085Z,24.00
2023-10-02T11:45:44.305Z,24.10
2023-10-02T11:48:12.842Z,24.20
2023-10-02T11:50:41.148Z,24.20
2023-10-02T11:53:10.724Z,24.20
2023-10-02T11:55:38.912Z,24.30
2023-10-02T11:58:07.070Z,24.30
2023-10-02T12:00:35.309Z,24.30
2023-10-02T12:03:03.688Z,24.30
2023-10-02T12:05:38.233Z,24.40
2023-10-02T12:08:07.607Z,24.40
2023-10-02T12:10:40.225Z,24.40
2023-10-02T12:13:10.152Z,24.50
2023-10-02T12:15:39.185Z,24.50
2023-10-02T12:18:08.308Z,24.40
2023-10-02T12:20:43.977Z,24.30
2023-10-02T12:23:12.208Z,24.20
2023-10-02T12:25:49.019Z,24.10
2023-10-02T12:28:18.210Z,24.10
2023-10-02T12:30:46.510Z,24.10
2023-10-02T12:33:15.638Z,24.20
2023-10-02T12:35:43.918Z,24.40
2023-10-02T12:38:14.820Z,24.50
2023-10-02T12:40:44.402Z,24.50
2023-10-02T12:43:13.793Z,24.60
2023-10-02T12:45:41.963Z,24.60
2023-10-02T12:48:10.800Z,24.70
2023-10-02T12:50:40.914Z,24.70
2023-10-02T12:53:09.871Z,24.70
2023-10-02T12:55:41.157Z,24.80
2023-10-02T12:58:11.612Z,24.90
2023-10-02T13:00:39.934Z,24.90
2023-10-02T13:03:08.740Z,24.90
2023-10-02T13:05:37.678Z,24.90
2023-10-02T13:08:07.582Z,25.00
2023-10-02T13:10:35.901Z,25.00
2023-10-02T13:13:05.978Z,25.10
2023-10-02T13:15:37.650Z,25.10
2023-10-02T13:18:07.098Z,25.10
2023-10-02T13:20:37.308Z,25.10
2023-10-02T13:23:06.874Z,24.90
2023-10-02T13:25:38.109Z,24.90
2023-10-02T13:28:07.003Z,24.90
2023-10-02T13:30:38.191Z,24.90
2023-10-02T13:33:06.693Z,24.90
2023-10-02T13:35:39.364Z,24.90
2023-10-02T13:38:08.689Z,24.90
2023-10-02T13:40:39.085Z,24.90
2023-10-02T13:43:08.738Z,24.90
2023-10-02T13:45:38.592Z,24.80
2023-10-02T13:48:07.977Z,24.90
2023-10-02T13:50:49.293Z,24.80
2023-10-02T13:53:25.148Z,24.70
2023-10-02T13:55:53.362Z,24.70
2023-10-02T13:58:23.919Z,24.60
2023-10-02T14:00:53.487Z,24.60
2023-10-02T14:03:23.193Z,24.50
2023-10-02T14:05:51.538Z,24.60
2023-10-02T14:08:20.494Z,24.60
2023-10-02T14:10:48.813Z,24.80
2023-10-02T14:13:17.012Z,24.80
2023-10-02T14:15:47.238Z,24.80
2023-10-02T14:18:17.635Z,24.80
2023-10-02T14:20:46.221Z,24.90
2023-10-02T14:23:14.389Z,24.90
2023-10-02T14:25:42.891Z,24.90
2023-10-02T14:28:13.321Z,24.80
2023-10-02T14:30:42.148Z,24.70
2023-10-02T14:33:10.455Z,24.60
2023-10-02T14:35:53.249Z,24.60
2023-10-02T14:38:23.503Z,24.60
2023-10-02T14:40:52.225Z,24.60
2023-10-02T14:43:21.710Z,24.50
2023-10-02T14:45:50.443Z,24.50
2023-10-02T14:48:41.876Z,24.40
2023-10-02T14:51:13.290Z,24.40
2023-10-02T14:53:42.085Z,24.40
2023-10-02T14:56:10.848Z,24.60
2023-10-02T14:58:42.495Z,24.60
2023-10-02T15:01:14.282Z,24.60
2023-10-02T15:03:43.388Z,24.60
2023-10-02T15:06:14.755Z,24.60
2023-10-02T15:08:43.497Z,24.40
2023-10-02T15:11:14.693Z,24.30
2023-10-02T15:13:44.262Z,24.20
2023-10-02T15:16:14.096Z,24.10
2023-10-02T15:18:43.159Z,24.00
2023-10-02T15:21:13.395Z,23.90
2023-10-02T15:23:41.955Z,23.80
2023-10-02T15:26:12.416Z,23.70
2023-10-02T15:28:40.833Z,23.70
2023-10-02T15:31:09.331Z,23.60
2023-10-02T15:33:38.628Z,23.50
2023-10-02T15:36:10.004Z,23.40
2023-10-02T15:38:41.963Z,23.40
2023-10-02T15:41:28.529Z,23.30
2023-10-02T15:43:58.250Z,23.30
2023-10-02T15:46:27.827Z,23.20
2023-10-02T15:48:56.846Z,23.20
2023-10-02T15:51:26.201Z,23.20
2023-10-02T15:53:57.222Z,23.10
2023-10-02T15:56:26.039Z,23.10
2023-10-02T15:58:55.792Z,23.00
2023-10-02T16:01:24.286Z,23.00
2023-10-02T16:03:52.681Z,22.90
2023-10-02T16:06:22.709Z,22.80
2023-10-02T16:08:52.839Z,22.70
2023-10-02T16:11:24.624Z,22.60
2023-10-02T16:13:53.813Z,22.50
2023-10-02T16:16:24.548Z,22.40
2023-10-02T16:18:53.111Z,22.20
2023-10-02T16:21:23.251Z,22.10
2023-10-02T16:23:52.045Z,21.90
2023-10-02T16:26:25.305Z,21.80
2023-10-02T16:28:53.598Z,21.70
2023-10-02T16:31:26.458Z,21.60
2023-10-02T16:33:55.172Z,21.40
2023-10-02T16:36:26.290Z,21.30
2023-10-02T16:39:16.089Z,21.10
2023-10-02T16:41:46.961Z,21.00
2023-10-02T16:44:15.165Z,20.80
2023-10-02T16:46:43.438Z,20.70
2023-10-02T16:49:11.834Z,20.60
2023-10-02T16:51:42.214Z,20.50
2023-10-02T16:54:10.463Z,20.40
2023-10-02T16:56:41.213Z,20.30
2023-10-02T16:59:11.073Z,20.20
2023-10-02T17:01:39.299Z,20.10
2023-10-02T17:04:09.075Z,20.00
2023-10-02T17:06:37.441Z,19.90
2023-10-02T17:09:05.802Z,19.80
2023-10-02T17:11:34.722Z,19.80
2023-10-02T17:14:03.309Z,19.70
2023-10-02T17:16:32.940Z,19.60
2023-10-02T17:19:01.364Z,19.60
2023-10-02T17:21:30.962Z,19.50
2023-10-02T17:23:59.879Z,19.50
2023-10-02T17:26:28.872Z,19.40
2023-10-02T17:28:57.693Z,19.50
2023-10-02T17:31:27.790Z,19.60
2023-10-02T17:33:58.588Z,19.70
2023-10-02T17:36:27.657Z,19.80
2023-10-02T17:38:55.855Z,19.80
2023-10-02T17:41:24.039Z,19.80
2023-10-02T17:43:54.484Z,19.70
2023-10-02T17:46:23.097Z,19.60
2023-10-02T17:48:51.367Z,19.50
2023-10-02T17:51:20.855Z,19.40
2023-10-02T17:53:50.427Z,19.30
2023-10-02T17:56:18.768Z,19.20
2023-10-02T17:58:47.086Z,19.20
2023-10-02T18:01:15.286Z,19.20
2023-10-02T18:03:46.426Z,19.10
2023-10-02T18:06:17.193Z,19.10
2023-10-02T18:08:46.803Z,19.00
2023-10-02T18:11:15.127Z,18.90
2023-10-02T18:13:43.383Z,18.90
2023-10-02T18:16:16.927Z,18.80
2023-10-02T18:18:45.939Z,18.70
2023-10-02T18:21:14.112Z,18.60
2023-10-02T18:23:43.499Z,18.60
2023-10-02T18:26:13.210Z,18.60
2023-10-02T18:28:41.601Z,18.50
2023-10-02T18:31:10.193Z,18.50
2023-10-02T18:33:39.403Z,18.50
2023-10-02T18:36:08.212Z,18.40
2023-10-02T18:38:38.192Z,18.40
2023-10-02T18:41:11.670Z,18.30
2023-10-02T18:43:41.601Z,18.30
2023-10-02T18:46:10.096Z,18.20
2023-10-02T18:48:38.341Z,18.20
2023-10-02T18:51:06.900Z,18.10
2023-10-02T18:53:36.618Z,18.10
2023-10-02T18:56:05.977Z,18.10
2023-10-02T18:58:34.171Z,18.10
2023-10-02T19:01:03.693Z,18.10
2023-10-02T19:03:31.944Z,18.10
2023-10-02T19:06:00.735Z,18.10
2023-10-02T19:08:28.984Z,18.00
2023-10-02T19:10:57.335Z,18.00
2023-10-02T19:13:25.937Z,17.90
2023-10-02T19:15:54.794Z,17.90
2023-10-02T19:18:26.031Z,17.90
2023-10-02T19:20:56.734Z,17.80
2023-10-02T19:23:24.917Z,17.80
2023-10-02T19:25:53.889Z,17.80
2023-10-02T19:28:22.020Z,17.70
2023-10-02T19:30:50.436Z,17.70
2023-10-02T19:33:18.704Z,17.60
2023-10-02T19:35:48.363Z,17.60
2023-10-02T19:38:16.593Z,17.60
2023-10-02T19:40:46.284Z,17.50
2023-10-02T19:43:15.199Z,17.50
2023-10-02T19:45:43.443Z,17.50
2023-10-02T19:48:11.797Z,17.50
2023-10-02T19:50:40.032Z,17.50
2023-10-02T19:53:10.118Z,17.50
2023-10-02T19:55:38.338Z,17.50
2023-10-02T19:58:06.536Z,17.50
2023-10-02T20:00:35.605Z,17.40
2023-10-02T20:03:05.526Z,17.40
2023-10-02T20:05:34.621Z,17.40
2023-10-02T20:08:02.926Z,17.40
2023-10-02T20:10:33.517Z,17.40
2023-10-02T20:13:01.722Z,17.30
2023-10-02T20:15:29.855Z,17.30
2023-10-02T20:17:58.100Z,17.30
2023-10-02T20:20:26.349Z,17.40
2023-10-02T20:22:54.581Z,17.30
2023-10-02T20:25:22.785Z,17.20
2023-10-02T20:27:53.115Z,17.20
2023-10-02T20:30:22.649Z,17.20
2023-10-02T20:32:50.972Z,17.20
2023-10-02T20:35:19.277Z,17.20
2023-10-02T20:37:47.705Z,17.10
2023-10-02T20:40:16.475Z,17.10
2023-10-02T20:42:44.597Z,17.10
2023-10-02T20:45:15.921Z,17.00
2023-10-02T20:47:44.285Z,17.00
2023-10-02T20:50:12.507Z,17.00
2023-10-02T20:52:40.664Z,16.90
2023-10-02T20:55:10.909Z,16.90
2023-10-02T20:57:40.238Z,16.90
2023-10-02T21:00:15.340Z,16.80
2023-10-02T21:02:46.327Z,16.70
2023-10-02T21:05:14.959Z,16.70
2023-10-02T21:07:43.653Z,16.70
2023-10-02T21:10:12.840Z,16.60
2023-10-02T21:12:41.067Z,16.60
2023-10-02T21:15:13.443Z,16.60
2023-10-02T21:17:43.056Z,16.50
2023-10-02T21:20:16.220Z,16.50
2023-10-02T21:22:46.664Z,16.50
2023-10-02T21:25:17.011Z,16.50
2023-10-02T21:27:45.709Z,16.50
2023-10-02T21:30:14.707Z,16.50
2023-10-02T21:32:44.388Z,16.50
2023-10-02T21:35:14.041Z,16.40
2023-10-02T21:37:42.777Z,16.40
2023-10-02T21:40:14.887Z,16.40
2023-10-02T21:42:43.644Z,16.40
2023-10-02T21:45:13.272Z,16.30
2023-10-02T21:47:41.640Z,16.30
2023-10-02T21:50:12.067Z,16.30
2023-10-02T21:52:41.713Z,16.20
2023-10-02T21:55:13.141Z,16.20
2023-10-02T21:57:41.408Z,16.20
2023-10-02T22:00:32.034Z,16.10
2023-10-02T22:03:00.616Z,16.10
2023-10-02T22:05:29.008Z,16.10
2023-10-02T22:07:59.018Z,16.10
2023-10-02T22:10:28.548Z,16.10
2023-10-02T22:12:56.856Z,16.10
2023-10-02T22:15:25.092Z,16.10
2023-10-02T22:17:56.703Z,16.10
2023-10-02T22:20:25.326Z,16.10
2023-10-02T22:22:53.836Z,16.00
2023-10-02T22:25:23.800Z,16.10
2023-10-02T22:27:51.997Z,16.10
2023-10-02T22:30:22.126Z,16.10
2023-10-02T22:32:51.677Z,16.10
2023-10-02T22:35:24.312Z,16.10
2023-10-02T22:37:53.420Z,16.10
2023-10-02T22:40:22.974Z,16.20
2023-10-02T22:42:52.538Z,16.20
2023-10-02T22:45:22.186Z,16.20
2023-10-02T22:47:50.726Z,16.40
2023-10-02T22:50:19.892Z,16.20
2023-10-02T22:52:49.159Z,16.20
2023-10-02T22:55:18.686Z,16.20
2023-10-02T22:57:48.835Z,16.20
2023-10-02T23:00:19.271Z,16.20
2023-10-02T23:02:50.052Z,16.20
2023-10-02T23:05:19.681Z,16.20
2023-10-02T23:07:48.712Z,16.30
2023-10-02T23:10:18.692Z,16.30
2023-10-02T23:12:53.562Z,16.30
2023-10-02T23:15:22.486Z,16.30
2023-10-02T23:17:52.874Z,16.30
2023-10-02T23:20:21.977Z,16.20
2023-10-02T23:22:51.967Z,16.30
2023-10-02T23:25:24.160Z,16.30
2023-10-02T23:27:54.777Z,16.40
2023-10-02T23:30:24.144Z,16.40
2023-10-02T23:32:56.261Z,16.40
2023-10-02T23:35:25.991Z,16.40
2023-10-02T23:37:57.593Z,16.40
2023-10-02T23:40:25.978Z,16.40
2023-10-02T23:43:00.234Z,16.40
2023-10-02T23:45:29.340Z,16.40
2023-10-02T23:48:02.458Z,16.50
2023-10-02T23:50:33.377Z,16.50
2023-10-02T23:53:03.162Z,16.40
2023-10-02T23:55:34.831Z,16.50
2023-10-02T23:58:04.666Z,16.50
